NCAR-RAP Real-Time Weather Data

Output produced by METARs form (19 December 2014  15:06 UTC)
found at http://weather.rap.ucar.edu/surface/
 
Conditions at: KSDF observed 19 December 2014  14:56 UTC
Temperature: -0.6°C (31°F)
Dewpoint: -4.4°C (24°F) [RH = 75%]
Pressure (altimeter): 30.31 inches Hg (1026.5 mb)
[Sea-level pressure: 1027.0 mb]
Winds: variable direction winds at 3 MPH (3 knots; 1.6 m/s)
Visibility: 6 miles (10 km)
Ceiling: at least 12,000 feet AGL
Clouds: few clouds at 1300 feet AGL
scattered clouds at 25000 feet AGL
Present Weather: HZ  (haze)
KSDF 191456Z VRB03KT 6SM HZ FEW013 SCT250 M01/M04 A3031 RMK AO2 SLP270 T10061044 51013